This is the latest recevied weather packets stored in our database for station/object SP2ARQ-13. If no packets are shown the sender has not sent any weather packets the latest 10 day(s).
| Time | Temp. | Humidity | Pressure | Rain* | Wind** | Luminosity | Snow |
|---|---|---|---|---|---|---|---|
| 1777642039 | 27.78° C | 32% | 1025 hPa | - | - | - | - |
| 1777641139 | 27.78° C | 31% | 1025.1 hPa | - | - | - | - |
| 1777640239 | 27.22° C | 32% | 1025.2 hPa | - | - | - | - |
| 1777639339 | 27.22° C | 33% | 1025.4 hPa | - | - | - | - |
| 1777638439 | 27.78° C | 31% | 1025.5 hPa | - | - | - | - |
| 1777637539 | 27.22° C | 34% | 1025.6 hPa | - | - | - | - |
| 1777636638 | 27.78° C | 35% | 1025.6 hPa | - | - | - | - |
| 1777635738 | 27.22° C | 35% | 1025.7 hPa | - | - | - | - |
| 1777634838 | 26.67° C | 37% | 1025.7 hPa | - | - | - | - |
| 1777633938 | 25.56° C | 37% | 1025.9 hPa | - | - | - | - |
| 1777633038 | 25° C | 38% | 1025.9 hPa | - | - | - | - |
| 1777632137 | 25.56° C | 37% | 1026 hPa | - | - | - | - |
| 1777631237 | 25° C | 38% | 1026.1 hPa | - | - | - | - |
| 1777630336 | 25° C | 38% | 1026.1 hPa | - | - | - | - |
| 1777629472 | 24.44° C | 39% | 1026.2 hPa | - | - | - | - |
| 1777628571 | 23.89° C | 39% | 1026.3 hPa | - | - | - | - |
| 1777627671 | 22.78° C | 40% | 1026.5 hPa | - | - | - | - |
| 1777626771 | 22.78° C | 40% | 1026.5 hPa | - | - | - | - |
| 1777625871 | 22.22° C | 41% | 1026.7 hPa | - | - | - | - |
| 1777624971 | 20.56° C | 43% | 1026.6 hPa | - | - | - | - |
| 1777624070 | 20.56° C | 43% | 1026.6 hPa | - | - | - | - |
| 1777623170 | 20° C | 43% | 1026.7 hPa | - | - | - | - |
| 1777622270 | 19.44° C | 44% | 1026.7 hPa | - | - | - | - |
| 1777621370 | 18.33° C | 45% | 1026.7 hPa | - | - | - | - |
| 1777620470 | 17.78° C | 46% | 1026.7 hPa | - | - | - | - |
* Rain since midnight (hover to see other rain measurements)
** Current wind speed in m/s (hover to see current wind gust speed)